sensor_id;sensor_type;location;lat;lon;timestamp;P1;durP1;ratioP1;P2;durP2;ratioP2
44366;SDS011;30086;57.660;12.000;2023-11-18T00:01:20;14.25;;;6.78;;
44366;SDS011;30086;57.660;12.000;2023-11-18T00:03:46;14.13;;;7.20;;
44366;SDS011;30086;57.660;12.000;2023-11-18T00:06:15;14.43;;;6.75;;
44366;SDS011;30086;57.660;12.000;2023-11-18T00:08:41;13.07;;;6.95;;
44366;SDS011;30086;57.660;12.000;2023-11-18T00:11:08;12.52;;;6.40;;
44366;SDS011;30086;57.660;12.000;2023-11-18T00:13:36;14.15;;;7.10;;
44366;SDS011;30086;57.660;12.000;2023-11-18T00:16:07;11.98;;;6.40;;
44366;SDS011;30086;57.660;12.000;2023-11-18T00:18:37;12.00;;;6.60;;
44366;SDS011;30086;57.660;12.000;2023-11-18T00:21:03;12.50;;;6.20;;
44366;SDS011;30086;57.660;12.000;2023-11-18T00:23:29;11.70;;;6.82;;
44366;SDS011;30086;57.660;12.000;2023-11-18T00:25:55;12.95;;;7.13;;
44366;SDS011;30086;57.660;12.000;2023-11-18T00:28:22;14.63;;;7.85;;
44366;SDS011;30086;57.660;12.000;2023-11-18T00:30:48;13.52;;;7.25;;
44366;SDS011;30086;57.660;12.000;2023-11-18T00:33:14;10.85;;;6.22;;
44366;SDS011;30086;57.660;12.000;2023-11-18T00:35:40;16.42;;;7.68;;
44366;SDS011;30086;57.660;12.000;2023-11-18T00:38:07;14.77;;;6.65;;
44366;SDS011;30086;57.660;12.000;2023-11-18T00:40:35;14.05;;;6.63;;
44366;SDS011;30086;57.660;12.000;2023-11-18T00:43:01;12.85;;;7.15;;
44366;SDS011;30086;57.660;12.000;2023-11-18T00:45:28;11.27;;;6.88;;
44366;SDS011;30086;57.660;12.000;2023-11-18T00:47:54;17.88;;;7.57;;
44366;SDS011;30086;57.660;12.000;2023-11-18T00:50:20;12.95;;;6.90;;
44366;SDS011;30086;57.660;12.000;2023-11-18T00:52:46;11.43;;;6.20;;
44366;SDS011;30086;57.660;12.000;2023-11-18T00:55:13;14.48;;;6.85;;
44366;SDS011;30086;57.660;12.000;2023-11-18T00:57:39;12.55;;;7.43;;
44366;SDS011;30086;57.660;12.000;2023-11-18T01:00:11;11.98;;;6.60;;
44366;SDS011;30086;57.660;12.000;2023-11-18T01:02:39;15.45;;;7.63;;
44366;SDS011;30086;57.660;12.000;2023-11-18T01:05:05;11.20;;;6.28;;
44366;SDS011;30086;57.660;12.000;2023-11-18T01:07:32;11.93;;;6.28;;
44366;SDS011;30086;57.660;12.000;2023-11-18T01:09:58;13.80;;;6.68;;
44366;SDS011;30086;57.660;12.000;2023-11-18T01:12:25;13.85;;;6.32;;
44366;SDS011;30086;57.660;12.000;2023-11-18T01:14:51;11.95;;;6.30;;
44366;SDS011;30086;57.660;12.000;2023-11-18T01:17:17;10.88;;;6.68;;
44366;SDS011;30086;57.660;12.000;2023-11-18T01:19:43;15.77;;;7.13;;
44366;SDS011;30086;57.660;12.000;2023-11-18T01:22:09;11.95;;;6.20;;
44366;SDS011;30086;57.660;12.000;2023-11-18T01:24:36;13.88;;;7.10;;
44366;SDS011;30086;57.660;12.000;2023-11-18T01:27:02;12.35;;;6.40;;
44366;SDS011;30086;57.660;12.000;2023-11-18T01:29:29;12.05;;;6.32;;
44366;SDS011;30086;57.660;12.000;2023-11-18T01:31:55;12.30;;;6.35;;
44366;SDS011;30086;57.660;12.000;2023-11-18T01:34:22;10.75;;;5.85;;
44366;SDS011;30086;57.660;12.000;2023-11-18T01:36:48;12.30;;;6.43;;
44366;SDS011;30086;57.660;12.000;2023-11-18T01:39:17;13.15;;;6.22;;
44366;SDS011;30086;57.660;12.000;2023-11-18T01:41:44;12.13;;;6.18;;
44366;SDS011;30086;57.660;12.000;2023-11-18T01:44:10;12.85;;;6.38;;
44366;SDS011;30086;57.660;12.000;2023-11-18T01:46:38;12.80;;;6.07;;
44366;SDS011;30086;57.660;12.000;2023-11-18T01:49:05;16.23;;;7.10;;
44366;SDS011;30086;57.660;12.000;2023-11-18T01:51:32;16.63;;;6.80;;
44366;SDS011;30086;57.660;12.000;2023-11-18T01:54:00;12.15;;;6.47;;
44366;SDS011;30086;57.660;12.000;2023-11-18T01:56:27;14.00;;;6.93;;
44366;SDS011;30086;57.660;12.000;2023-11-18T01:58:53;14.27;;;6.82;;
44366;SDS011;30086;57.660;12.000;2023-11-18T02:01:20;11.45;;;6.20;;
44366;SDS011;30086;57.660;12.000;2023-11-18T02:03:46;13.10;;;6.32;;
44366;SDS011;30086;57.660;12.000;2023-11-18T02:06:12;13.82;;;6.22;;
44366;SDS011;30086;57.660;12.000;2023-11-18T02:08:39;14.00;;;6.65;;
44366;SDS011;30086;57.660;12.000;2023-11-18T02:13:37;15.18;;;6.60;;
44366;SDS011;30086;57.660;12.000;2023-11-18T02:16:04;16.27;;;6.93;;
44366;SDS011;30086;57.660;12.000;2023-11-18T02:18:32;13.93;;;6.95;;
44366;SDS011;30086;57.660;12.000;2023-11-18T02:20:59;13.68;;;7.35;;
44366;SDS011;30086;57.660;12.000;2023-11-18T02:23:25;16.15;;;7.43;;
44366;SDS011;30086;57.660;12.000;2023-11-18T02:25:52;14.80;;;7.03;;
44366;SDS011;30086;57.660;12.000;2023-11-18T02:28:18;12.52;;;6.32;;
44366;SDS011;30086;57.660;12.000;2023-11-18T02:30:45;15.43;;;6.22;;
44366;SDS011;30086;57.660;12.000;2023-11-18T02:36:13;12.88;;;5.93;;
44366;SDS011;30086;57.660;12.000;2023-11-18T02:38:42;14.43;;;6.32;;
44366;SDS011;30086;57.660;12.000;2023-11-18T02:41:10;10.95;;;6.13;;
44366;SDS011;30086;57.660;12.000;2023-11-18T02:43:37;14.60;;;6.72;;
44366;SDS011;30086;57.660;12.000;2023-11-18T02:46:04;11.88;;;6.18;;
44366;SDS011;30086;57.660;12.000;2023-11-18T02:48:32;13.32;;;6.80;;
44366;SDS011;30086;57.660;12.000;2023-11-18T02:51:01;12.70;;;6.65;;
44366;SDS011;30086;57.660;12.000;2023-11-18T02:53:28;15.82;;;6.80;;
44366;SDS011;30086;57.660;12.000;2023-11-18T02:55:54;12.45;;;6.05;;
44366;SDS011;30086;57.660;12.000;2023-11-18T02:58:27;15.48;;;6.72;;
44366;SDS011;30086;57.660;12.000;2023-11-18T03:00:53;15.48;;;6.65;;
44366;SDS011;30086;57.660;12.000;2023-11-18T03:03:19;12.70;;;6.28;;
44366;SDS011;30086;57.660;12.000;2023-11-18T03:05:45;15.93;;;6.60;;
44366;SDS011;30086;57.660;12.000;2023-11-18T03:08:13;12.70;;;6.28;;
44366;SDS011;30086;57.660;12.000;2023-11-18T03:10:39;13.55;;;6.53;;
44366;SDS011;30086;57.660;12.000;2023-11-18T03:13:09;13.90;;;7.00;;
44366;SDS011;30086;57.660;12.000;2023-11-18T03:15:35;11.90;;;6.18;;
44366;SDS011;30086;57.660;12.000;2023-11-18T03:18:01;13.27;;;6.80;;
44366;SDS011;30086;57.660;12.000;2023-11-18T03:20:27;15.45;;;7.40;;
44366;SDS011;30086;57.660;12.000;2023-11-18T03:22:54;15.07;;;6.85;;
44366;SDS011;30086;57.660;12.000;2023-11-18T03:25:20;12.43;;;6.50;;
44366;SDS011;30086;57.660;12.000;2023-11-18T03:27:49;14.98;;;7.38;;
44366;SDS011;30086;57.660;12.000;2023-11-18T03:30:15;11.95;;;6.70;;
44366;SDS011;30086;57.660;12.000;2023-11-18T03:32:43;12.82;;;6.53;;
44366;SDS011;30086;57.660;12.000;2023-11-18T03:35:09;15.05;;;7.68;;
44366;SDS011;30086;57.660;12.000;2023-11-18T03:37:35;15.45;;;6.93;;
44366;SDS011;30086;57.660;12.000;2023-11-18T03:40:04;14.68;;;7.68;;
44366;SDS011;30086;57.660;12.000;2023-11-18T03:42:30;14.02;;;7.30;;
44366;SDS011;30086;57.660;12.000;2023-11-18T03:44:57;15.27;;;7.43;;
44366;SDS011;30086;57.660;12.000;2023-11-18T03:47:23;14.60;;;7.38;;
44366;SDS011;30086;57.660;12.000;2023-11-18T03:49:49;13.20;;;7.05;;
44366;SDS011;30086;57.660;12.000;2023-11-18T03:52:15;12.90;;;7.75;;
44366;SDS011;30086;57.660;12.000;2023-11-18T03:54:41;15.48;;;8.18;;
44366;SDS011;30086;57.660;12.000;2023-11-18T03:57:07;16.00;;;8.23;;
44366;SDS011;30086;57.660;12.000;2023-11-18T03:59:33;14.85;;;8.68;;
44366;SDS011;30086;57.660;12.000;2023-11-18T04:01:59;13.52;;;7.05;;
44366;SDS011;30086;57.660;12.000;2023-11-18T04:04:26;16.58;;;8.18;;
44366;SDS011;30086;57.660;12.000;2023-11-18T04:06:52;16.15;;;7.68;;
44366;SDS011;30086;57.660;12.000;2023-11-18T04:09:18;15.88;;;7.65;;
44366;SDS011;30086;57.660;12.000;2023-11-18T04:11:45;18.08;;;8.52;;
44366;SDS011;30086;57.660;12.000;2023-11-18T04:14:11;15.80;;;8.63;;
44366;SDS011;30086;57.660;12.000;2023-11-18T04:16:37;18.25;;;8.93;;
44366;SDS011;30086;57.660;12.000;2023-11-18T04:19:03;13.10;;;7.78;;
44366;SDS011;30086;57.660;12.000;2023-11-18T04:21:30;15.68;;;7.88;;
44366;SDS011;30086;57.660;12.000;2023-11-18T04:23:56;16.45;;;8.07;;
44366;SDS011;30086;57.660;12.000;2023-11-18T04:26:22;14.48;;;7.88;;
44366;SDS011;30086;57.660;12.000;2023-11-18T04:28:49;13.15;;;7.20;;
44366;SDS011;30086;57.660;12.000;2023-11-18T04:31:15;12.77;;;7.63;;
44366;SDS011;30086;57.660;12.000;2023-11-18T04:33:41;12.55;;;6.95;;
44366;SDS011;30086;57.660;12.000;2023-11-18T04:36:08;12.57;;;7.13;;
44366;SDS011;30086;57.660;12.000;2023-11-18T04:38:35;13.75;;;7.03;;
44366;SDS011;30086;57.660;12.000;2023-11-18T04:41:01;15.43;;;7.55;;
44366;SDS011;30086;57.660;12.000;2023-11-18T04:43:28;13.45;;;7.15;;
44366;SDS011;30086;57.660;12.000;2023-11-18T04:45:55;11.98;;;6.45;;
44366;SDS011;30086;57.660;12.000;2023-11-18T04:48:21;10.73;;;6.93;;
44366;SDS011;30086;57.660;12.000;2023-11-18T04:50:47;11.38;;;6.45;;
44366;SDS011;30086;57.660;12.000;2023-11-18T04:53:13;10.65;;;6.05;;
44366;SDS011;30086;57.660;12.000;2023-11-18T04:55:39;11.75;;;6.00;;
44366;SDS011;30086;57.660;12.000;2023-11-18T04:58:05;13.43;;;6.88;;
44366;SDS011;30086;57.660;12.000;2023-11-18T05:00:32;12.90;;;7.32;;
44366;SDS011;30086;57.660;12.000;2023-11-18T05:02:58;15.27;;;6.80;;
44366;SDS011;30086;57.660;12.000;2023-11-18T05:05:24;12.85;;;6.47;;
44366;SDS011;30086;57.660;12.000;2023-11-18T05:07:50;12.98;;;6.85;;
44366;SDS011;30086;57.660;12.000;2023-11-18T05:10:16;11.30;;;6.03;;
44366;SDS011;30086;57.660;12.000;2023-11-18T05:12:43;15.63;;;6.38;;
44366;SDS011;30086;57.660;12.000;2023-11-18T05:15:09;13.52;;;6.88;;
44366;SDS011;30086;57.660;12.000;2023-11-18T05:17:36;13.15;;;7.18;;
44366;SDS011;30086;57.660;12.000;2023-11-18T05:20:03;14.60;;;7.03;;
44366;SDS011;30086;57.660;12.000;2023-11-18T05:22:30;15.48;;;7.13;;
44366;SDS011;30086;57.660;12.000;2023-11-18T05:24:56;19.38;;;7.50;;
44366;SDS011;30086;57.660;12.000;2023-11-18T05:27:22;34.60;;;7.90;;
44366;SDS011;30086;57.660;12.000;2023-11-18T05:29:48;33.45;;;9.05;;
44366;SDS011;30086;57.660;12.000;2023-11-18T05:32:19;15.90;;;8.32;;
44366;SDS011;30086;57.660;12.000;2023-11-18T05:34:46;34.95;;;8.38;;
44366;SDS011;30086;57.660;12.000;2023-11-18T05:37:12;52.17;;;10.00;;
44366;SDS011;30086;57.660;12.000;2023-11-18T05:39:38;119.18;;;11.18;;
44366;SDS011;30086;57.660;12.000;2023-11-18T05:42:09;106.65;;;11.63;;
44366;SDS011;30086;57.660;12.000;2023-11-18T05:44:36;34.50;;;9.13;;
44366;SDS011;30086;57.660;12.000;2023-11-18T05:47:04;83.95;;;10.75;;
44366;SDS011;30086;57.660;12.000;2023-11-18T05:49:30;91.07;;;10.90;;
44366;SDS011;30086;57.660;12.000;2023-11-18T05:51:56;47.03;;;9.13;;
44366;SDS011;30086;57.660;12.000;2023-11-18T05:54:22;53.30;;;8.48;;
44366;SDS011;30086;57.660;12.000;2023-11-18T05:56:49;19.55;;;7.07;;
44366;SDS011;30086;57.660;12.000;2023-11-18T05:59:15;34.97;;;8.05;;
44366;SDS011;30086;57.660;12.000;2023-11-18T06:01:41;49.13;;;8.82;;
44366;SDS011;30086;57.660;12.000;2023-11-18T06:04:07;94.15;;;10.20;;
44366;SDS011;30086;57.660;12.000;2023-11-18T06:06:33;26.95;;;7.75;;
44366;SDS011;30086;57.660;12.000;2023-11-18T06:09:00;19.42;;;7.15;;
44366;SDS011;30086;57.660;12.000;2023-11-18T06:11:30;15.32;;;6.22;;
44366;SDS011;30086;57.660;12.000;2023-11-18T06:14:00;18.80;;;6.70;;
44366;SDS011;30086;57.660;12.000;2023-11-18T06:16:26;32.08;;;7.95;;
44366;SDS011;30086;57.660;12.000;2023-11-18T06:18:53;31.17;;;7.95;;
44366;SDS011;30086;57.660;12.000;2023-11-18T06:21:20;21.92;;;7.80;;
44366;SDS011;30086;57.660;12.000;2023-11-18T06:23:49;27.63;;;8.00;;
44366;SDS011;30086;57.660;12.000;2023-11-18T06:26:15;57.13;;;10.75;;
44366;SDS011;30086;57.660;12.000;2023-11-18T06:28:43;63.10;;;10.65;;
44366;SDS011;30086;57.660;12.000;2023-11-18T06:31:10;52.88;;;8.95;;
44366;SDS011;30086;57.660;12.000;2023-11-18T06:33:40;27.92;;;7.72;;
44366;SDS011;30086;57.660;12.000;2023-11-18T06:36:08;28.15;;;8.52;;
44366;SDS011;30086;57.660;12.000;2023-11-18T06:38:35;26.35;;;9.30;;
44366;SDS011;30086;57.660;12.000;2023-11-18T06:41:02;23.67;;;8.27;;
44366;SDS011;30086;57.660;12.000;2023-11-18T06:43:30;24.95;;;9.02;;
44366;SDS011;30086;57.660;12.000;2023-11-18T06:46:10;19.40;;;8.40;;
44366;SDS011;30086;57.660;12.000;2023-11-18T06:48:39;23.02;;;8.25;;
44366;SDS011;30086;57.660;12.000;2023-11-18T06:51:05;18.52;;;8.38;;
44366;SDS011;30086;57.660;12.000;2023-11-18T06:53:33;18.50;;;8.25;;
44366;SDS011;30086;57.660;12.000;2023-11-18T06:55:59;19.13;;;8.25;;
44366;SDS011;30086;57.660;12.000;2023-11-18T06:58:25;17.00;;;7.95;;
44366;SDS011;30086;57.660;12.000;2023-11-18T07:00:52;16.88;;;8.02;;
44366;SDS011;30086;57.660;12.000;2023-11-18T07:03:18;17.10;;;8.20;;
44366;SDS011;30086;57.660;12.000;2023-11-18T07:05:44;16.83;;;8.32;;
44366;SDS011;30086;57.660;12.000;2023-11-18T07:08:11;18.75;;;8.48;;
44366;SDS011;30086;57.660;12.000;2023-11-18T07:10:38;20.50;;;8.98;;
44366;SDS011;30086;57.660;12.000;2023-11-18T07:13:04;19.35;;;8.45;;
44366;SDS011;30086;57.660;12.000;2023-11-18T07:15:32;19.73;;;7.72;;
44366;SDS011;30086;57.660;12.000;2023-11-18T07:17:58;16.40;;;8.23;;
44366;SDS011;30086;57.660;12.000;2023-11-18T07:20:24;18.52;;;8.15;;
44366;SDS011;30086;57.660;12.000;2023-11-18T07:22:51;13.38;;;7.57;;
44366;SDS011;30086;57.660;12.000;2023-11-18T07:25:17;13.90;;;6.97;;
44366;SDS011;30086;57.660;12.000;2023-11-18T07:27:43;12.57;;;7.22;;
44366;SDS011;30086;57.660;12.000;2023-11-18T07:30:10;12.45;;;6.60;;
44366;SDS011;30086;57.660;12.000;2023-11-18T07:32:37;11.73;;;6.65;;
44366;SDS011;30086;57.660;12.000;2023-11-18T07:35:06;9.15;;;5.43;;
44366;SDS011;30086;57.660;12.000;2023-11-18T07:37:36;9.63;;;5.25;;
44366;SDS011;30086;57.660;12.000;2023-11-18T07:40:03;10.32;;;6.28;;
44366;SDS011;30086;57.660;12.000;2023-11-18T07:42:31;8.02;;;5.32;;
44366;SDS011;30086;57.660;12.000;2023-11-18T07:45:06;9.45;;;5.72;;
44366;SDS011;30086;57.660;12.000;2023-11-18T07:47:42;11.82;;;6.28;;
44366;SDS011;30086;57.660;12.000;2023-11-18T07:50:10;10.50;;;5.65;;
44366;SDS011;30086;57.660;12.000;2023-11-18T07:52:38;10.75;;;5.82;;
44366;SDS011;30086;57.660;12.000;2023-11-18T07:55:04;8.80;;;5.53;;
44366;SDS011;30086;57.660;12.000;2023-11-18T07:57:30;10.70;;;6.00;;
44366;SDS011;30086;57.660;12.000;2023-11-18T08:00:01;8.68;;;5.15;;
44366;SDS011;30086;57.660;12.000;2023-11-18T08:02:30;10.40;;;5.90;;
44366;SDS011;30086;57.660;12.000;2023-11-18T08:04:57;7.50;;;5.05;;
44366;SDS011;30086;57.660;12.000;2023-11-18T08:07:23;9.93;;;6.20;;
44366;SDS011;30086;57.660;12.000;2023-11-18T08:09:51;8.40;;;5.47;;
44366;SDS011;30086;57.660;12.000;2023-11-18T08:12:17;10.32;;;5.90;;
44366;SDS011;30086;57.660;12.000;2023-11-18T08:14:45;8.35;;;5.22;;
44366;SDS011;30086;57.660;12.000;2023-11-18T08:17:14;9.65;;;5.90;;
44366;SDS011;30086;57.660;12.000;2023-11-18T08:19:43;11.55;;;5.75;;
44366;SDS011;30086;57.660;12.000;2023-11-18T08:22:11;8.75;;;5.22;;
44366;SDS011;30086;57.660;12.000;2023-11-18T08:24:38;9.27;;;5.63;;
44366;SDS011;30086;57.660;12.000;2023-11-18T08:27:04;7.90;;;5.28;;
44366;SDS011;30086;57.660;12.000;2023-11-18T08:29:33;7.25;;;5.13;;
44366;SDS011;30086;57.660;12.000;2023-11-18T08:31:59;8.50;;;5.18;;
44366;SDS011;30086;57.660;12.000;2023-11-18T08:34:26;7.47;;;4.63;;
44366;SDS011;30086;57.660;12.000;2023-11-18T08:36:52;6.60;;;4.07;;
44366;SDS011;30086;57.660;12.000;2023-11-18T08:39:18;7.57;;;4.65;;
44366;SDS011;30086;57.660;12.000;2023-11-18T08:41:45;11.15;;;4.65;;
44366;SDS011;30086;57.660;12.000;2023-11-18T08:44:15;6.55;;;4.03;;
44366;SDS011;30086;57.660;12.000;2023-11-18T08:46:42;5.78;;;3.92;;
44366;SDS011;30086;57.660;12.000;2023-11-18T08:49:08;10.90;;;4.88;;
44366;SDS011;30086;57.660;12.000;2023-11-18T08:51:38;6.95;;;4.35;;
44366;SDS011;30086;57.660;12.000;2023-11-18T08:54:07;5.53;;;3.53;;
44366;SDS011;30086;57.660;12.000;2023-11-18T08:56:50;7.90;;;4.18;;
44366;SDS011;30086;57.660;12.000;2023-11-18T08:59:23;5.95;;;4.10;;
44366;SDS011;30086;57.660;12.000;2023-11-18T09:01:53;7.05;;;4.22;;
44366;SDS011;30086;57.660;12.000;2023-11-18T09:04:28;9.15;;;4.97;;
44366;SDS011;30086;57.660;12.000;2023-11-18T09:06:54;7.78;;;4.53;;
44366;SDS011;30086;57.660;12.000;2023-11-18T09:09:25;6.05;;;4.22;;
44366;SDS011;30086;57.660;12.000;2023-11-18T09:11:56;9.77;;;3.92;;
44366;SDS011;30086;57.660;12.000;2023-11-18T09:14:27;5.68;;;3.58;;
44366;SDS011;30086;57.660;12.000;2023-11-18T09:16:56;7.60;;;4.47;;
44366;SDS011;30086;57.660;12.000;2023-11-18T09:19:24;6.82;;;4.30;;
44366;SDS011;30086;57.660;12.000;2023-11-18T09:21:50;6.78;;;4.40;;
44366;SDS011;30086;57.660;12.000;2023-11-18T09:24:20;6.68;;;4.30;;
44366;SDS011;30086;57.660;12.000;2023-11-18T09:26:49;5.53;;;4.43;;
44366;SDS011;30086;57.660;12.000;2023-11-18T09:29:18;6.13;;;4.00;;
44366;SDS011;30086;57.660;12.000;2023-11-18T09:31:49;7.55;;;3.78;;
44366;SDS011;30086;57.660;12.000;2023-11-18T09:34:17;5.70;;;4.03;;
44366;SDS011;30086;57.660;12.000;2023-11-18T09:36:51;5.88;;;3.63;;
44366;SDS011;30086;57.660;12.000;2023-11-18T09:39:18;6.30;;;3.83;;
44366;SDS011;30086;57.660;12.000;2023-11-18T09:42:03;7.65;;;3.88;;
44366;SDS011;30086;57.660;12.000;2023-11-18T09:44:29;5.40;;;3.50;;
44366;SDS011;30086;57.660;12.000;2023-11-18T09:46:57;5.55;;;3.75;;
44366;SDS011;30086;57.660;12.000;2023-11-18T09:49:31;8.65;;;3.80;;
44366;SDS011;30086;57.660;12.000;2023-11-18T09:52:04;8.40;;;3.95;;
44366;SDS011;30086;57.660;12.000;2023-11-18T09:54:36;7.57;;;3.42;;
44366;SDS011;30086;57.660;12.000;2023-11-18T10:00:31;4.18;;;3.33;;
44366;SDS011;30086;57.660;12.000;2023-11-18T10:02:58;4.53;;;3.60;;
44366;SDS011;30086;57.660;12.000;2023-11-18T10:05:33;3.45;;;2.78;;
44366;SDS011;30086;57.660;12.000;2023-11-18T10:08:03;4.25;;;2.92;;
44366;SDS011;30086;57.660;12.000;2023-11-18T10:10:31;6.78;;;3.10;;
44366;SDS011;30086;57.660;12.000;2023-11-18T10:13:03;7.72;;;3.45;;
44366;SDS011;30086;57.660;12.000;2023-11-18T10:15:46;9.48;;;3.55;;
44366;SDS011;30086;57.660;12.000;2023-11-18T10:18:17;9.90;;;3.10;;
44366;SDS011;30086;57.660;12.000;2023-11-18T10:21:14;6.72;;;3.70;;
44366;SDS011;30086;57.660;12.000;2023-11-18T10:23:59;4.63;;;3.05;;
44366;SDS011;30086;57.660;12.000;2023-11-18T10:26:56;3.95;;;2.72;;
44366;SDS011;30086;57.660;12.000;2023-11-18T10:29:26;7.90;;;3.30;;
44366;SDS011;30086;57.660;12.000;2023-11-18T10:32:03;7.22;;;3.38;;
44366;SDS011;30086;57.660;12.000;2023-11-18T10:34:34;3.63;;;2.47;;
44366;SDS011;30086;57.660;12.000;2023-11-18T10:37:01;3.70;;;2.95;;
44366;SDS011;30086;57.660;12.000;2023-11-18T10:39:29;3.05;;;2.28;;
44366;SDS011;30086;57.660;12.000;2023-11-18T10:41:58;7.32;;;3.22;;
44366;SDS011;30086;57.660;12.000;2023-11-18T10:44:30;4.40;;;2.55;;
44366;SDS011;30086;57.660;12.000;2023-11-18T10:46:57;11.07;;;2.65;;
44366;SDS011;30086;57.660;12.000;2023-11-18T10:49:24;4.28;;;3.00;;
44366;SDS011;30086;57.660;12.000;2023-11-18T10:51:51;3.78;;;3.00;;
44366;SDS011;30086;57.660;12.000;2023-11-18T10:54:19;4.25;;;3.28;;
44366;SDS011;30086;57.660;12.000;2023-11-18T10:56:47;7.45;;;3.33;;
44366;SDS011;30086;57.660;12.000;2023-11-18T10:59:14;4.60;;;3.10;;
44366;SDS011;30086;57.660;12.000;2023-11-18T11:01:41;6.82;;;3.33;;
44366;SDS011;30086;57.660;12.000;2023-11-18T11:04:08;4.80;;;3.55;;
44366;SDS011;30086;57.660;12.000;2023-11-18T11:06:40;5.55;;;3.67;;
44366;SDS011;30086;57.660;12.000;2023-11-18T11:09:07;4.32;;;3.22;;
44366;SDS011;30086;57.660;12.000;2023-11-18T11:11:49;4.30;;;3.42;;
44366;SDS011;30086;57.660;12.000;2023-11-18T11:14:16;5.75;;;3.25;;
44366;SDS011;30086;57.660;12.000;2023-11-18T11:16:45;4.45;;;3.30;;
44366;SDS011;30086;57.660;12.000;2023-11-18T11:19:25;4.65;;;3.47;;
44366;SDS011;30086;57.660;12.000;2023-11-18T11:22:04;6.70;;;3.33;;
44366;SDS011;30086;57.660;12.000;2023-11-18T11:25:07;4.97;;;3.13;;
44366;SDS011;30086;57.660;12.000;2023-11-18T11:31:20;5.45;;;2.97;;
44366;SDS011;30086;57.660;12.000;2023-11-18T11:33:43;5.35;;;2.78;;
44366;SDS011;30086;57.660;12.000;2023-11-18T11:36:13;7.10;;;2.58;;
44366;SDS011;30086;57.660;12.000;2023-11-18T11:38:55;4.50;;;2.80;;
44366;SDS011;30086;57.660;12.000;2023-11-18T11:41:58;6.60;;;3.00;;
44366;SDS011;30086;57.660;12.000;2023-11-18T11:44:25;4.97;;;2.42;;
44366;SDS011;30086;57.660;12.000;2023-11-18T11:47:13;7.63;;;2.55;;
44366;SDS011;30086;57.660;12.000;2023-11-18T11:50:17;4.10;;;2.35;;
44366;SDS011;30086;57.660;12.000;2023-11-18T11:52:38;8.27;;;2.25;;
44366;SDS011;30086;57.660;12.000;2023-11-18T11:57:54;5.30;;;2.50;;
44366;SDS011;30086;57.660;12.000;2023-11-18T12:00:25;3.03;;;1.85;;
44366;SDS011;30086;57.660;12.000;2023-11-18T12:03:40;6.30;;;1.95;;
44366;SDS011;30086;57.660;12.000;2023-11-18T12:06:40;2.50;;;1.98;;
44366;SDS011;30086;57.660;12.000;2023-11-18T12:09:51;2.65;;;2.00;;
44366;SDS011;30086;57.660;12.000;2023-11-18T12:16:08;4.57;;;2.30;;
44366;SDS011;30086;57.660;12.000;2023-11-18T12:22:11;3.85;;;1.90;;
44366;SDS011;30086;57.660;12.000;2023-11-18T12:24:42;6.80;;;3.03;;
44366;SDS011;30086;57.660;12.000;2023-11-18T12:30:38;4.78;;;2.30;;
44366;SDS011;30086;57.660;12.000;2023-11-18T12:43:02;3.40;;;1.98;;
44366;SDS011;30086;57.660;12.000;2023-11-18T12:48:05;4.05;;;2.15;;
44366;SDS011;30086;57.660;12.000;2023-11-18T12:50:53;3.83;;;2.30;;
44366;SDS011;30086;57.660;12.000;2023-11-18T12:53:25;3.25;;;2.08;;
44366;SDS011;30086;57.660;12.000;2023-11-18T12:56:14;4.45;;;2.38;;
44366;SDS011;30086;57.660;12.000;2023-11-18T12:59:04;3.10;;;2.03;;
44366;SDS011;30086;57.660;12.000;2023-11-18T13:01:47;2.97;;;2.15;;
44366;SDS011;30086;57.660;12.000;2023-11-18T13:04:23;6.10;;;2.28;;
44366;SDS011;30086;57.660;12.000;2023-11-18T13:06:49;3.58;;;2.03;;
44366;SDS011;30086;57.660;12.000;2023-11-18T13:09:22;4.40;;;1.83;;
44366;SDS011;30086;57.660;12.000;2023-11-18T13:11:55;8.95;;;5.53;;
44366;SDS011;30086;57.660;12.000;2023-11-18T13:14:27;4.63;;;2.22;;
44366;SDS011;30086;57.660;12.000;2023-11-18T13:16:56;6.15;;;2.08;;
44366;SDS011;30086;57.660;12.000;2023-11-18T13:19:31;3.35;;;2.00;;
44366;SDS011;30086;57.660;12.000;2023-11-18T13:22:02;5.55;;;2.35;;
44366;SDS011;30086;57.660;12.000;2023-11-18T13:24:29;3.53;;;2.20;;
44366;SDS011;30086;57.660;12.000;2023-11-18T13:27:03;4.40;;;2.47;;
44366;SDS011;30086;57.660;12.000;2023-11-18T13:29:48;5.03;;;2.13;;
44366;SDS011;30086;57.660;12.000;2023-11-18T13:32:17;4.25;;;2.42;;
44366;SDS011;30086;57.660;12.000;2023-11-18T13:34:48;6.65;;;2.78;;
44366;SDS011;30086;57.660;12.000;2023-11-18T13:37:18;4.07;;;2.50;;
44366;SDS011;30086;57.660;12.000;2023-11-18T13:39:54;3.05;;;2.20;;
44366;SDS011;30086;57.660;12.000;2023-11-18T13:42:22;5.20;;;2.80;;
44366;SDS011;30086;57.660;12.000;2023-11-18T13:44:49;4.78;;;3.25;;
44366;SDS011;30086;57.660;12.000;2023-11-18T13:47:35;4.68;;;2.10;;
44366;SDS011;30086;57.660;12.000;2023-11-18T13:50:06;3.33;;;1.88;;
44366;SDS011;30086;57.660;12.000;2023-11-18T13:52:34;2.33;;;1.65;;
44366;SDS011;30086;57.660;12.000;2023-11-18T13:55:05;2.50;;;1.80;;
44366;SDS011;30086;57.660;12.000;2023-11-18T13:57:40;3.97;;;2.28;;
44366;SDS011;30086;57.660;12.000;2023-11-18T14:00:08;3.47;;;2.22;;
44366;SDS011;30086;57.660;12.000;2023-11-18T14:02:42;3.03;;;2.00;;
44366;SDS011;30086;57.660;12.000;2023-11-18T14:05:16;3.40;;;2.10;;
44366;SDS011;30086;57.660;12.000;2023-11-18T14:07:44;3.20;;;2.20;;
44366;SDS011;30086;57.660;12.000;2023-11-18T14:10:13;4.05;;;2.22;;
44366;SDS011;30086;57.660;12.000;2023-11-18T14:13:07;3.50;;;2.20;;
44366;SDS011;30086;57.660;12.000;2023-11-18T14:15:38;3.58;;;2.30;;
44366;SDS011;30086;57.660;12.000;2023-11-18T14:18:46;4.18;;;2.40;;
44366;SDS011;30086;57.660;12.000;2023-11-18T14:21:42;4.15;;;2.72;;
44366;SDS011;30086;57.660;12.000;2023-11-18T14:24:24;5.22;;;2.60;;
44366;SDS011;30086;57.660;12.000;2023-11-18T14:27:11;6.75;;;2.72;;
44366;SDS011;30086;57.660;12.000;2023-11-18T14:29:42;4.28;;;2.67;;
44366;SDS011;30086;57.660;12.000;2023-11-18T14:32:09;5.97;;;2.55;;
44366;SDS011;30086;57.660;12.000;2023-11-18T14:34:36;4.00;;;3.10;;
44366;SDS011;30086;57.660;12.000;2023-11-18T14:37:03;4.93;;;2.65;;
44366;SDS011;30086;57.660;12.000;2023-11-18T14:39:33;8.48;;;3.35;;
44366;SDS011;30086;57.660;12.000;2023-11-18T14:42:02;6.60;;;2.72;;
44366;SDS011;30086;57.660;12.000;2023-11-18T14:44:29;5.53;;;2.97;;
44366;SDS011;30086;57.660;12.000;2023-11-18T14:46:55;7.32;;;4.13;;
44366;SDS011;30086;57.660;12.000;2023-11-18T14:49:22;5.70;;;3.20;;
44366;SDS011;30086;57.660;12.000;2023-11-18T14:51:51;8.35;;;3.28;;
44366;SDS011;30086;57.660;12.000;2023-11-18T14:54:17;6.57;;;3.72;;
44366;SDS011;30086;57.660;12.000;2023-11-18T14:56:52;6.07;;;3.85;;
44366;SDS011;30086;57.660;12.000;2023-11-18T14:59:38;7.43;;;4.13;;
44366;SDS011;30086;57.660;12.000;2023-11-18T15:02:26;11.18;;;4.40;;
44366;SDS011;30086;57.660;12.000;2023-11-18T15:04:54;6.75;;;3.92;;
44366;SDS011;30086;57.660;12.000;2023-11-18T15:10:26;8.43;;;4.30;;
44366;SDS011;30086;57.660;12.000;2023-11-18T15:13:40;6.47;;;3.92;;
44366;SDS011;30086;57.660;12.000;2023-11-18T15:16:17;7.07;;;4.53;;
44366;SDS011;30086;57.660;12.000;2023-11-18T15:22:09;6.00;;;3.42;;
44366;SDS011;30086;57.660;12.000;2023-11-18T15:24:53;5.65;;;3.72;;
44366;SDS011;30086;57.660;12.000;2023-11-18T15:33:45;10.07;;;4.57;;